Time;durP1;ratioP1;P1;durP2;ratioP2;P2;SDS_P1;SDS_P2;PMS_P1;PMS_P2;Temp;Humidity;BMP_temperature;BMP_pressure;BME280_temperature;BME280_humidity;BME280_pressure;Samples;Min_cycle;Max_cycle;Signal;HPM_P1;HPM_P2
2023/01/24 00:00:13;;;;;;;8.20;4.67;;;5.60;90.30;;;;;;5068049;28;20214;-61
2023/01/24 00:02:40;;;;;;;6.23;3.30;;;5.60;90.30;;;;;;5072621;28;20240;-60
2023/01/24 00:05:09;;;;;;;4.30;3.27;;;5.60;90.30;;;;;;5088745;28;20199;-62
2023/01/24 00:07:36;;;;;;;5.10;3.47;;;5.60;90.20;;;;;;5089213;27;20279;-62
2023/01/24 00:10:05;;;;;;;4.70;2.77;;;5.70;90.20;;;;;;5089008;28;20189;-61
2023/01/24 00:12:32;;;;;;;4.43;3.07;;;5.70;90.20;;;;;;5087083;27;20664;-61
2023/01/24 00:14:59;;;;;;;5.87;3.00;;;5.70;90.50;;;;;;5089398;28;20192;-62
2023/01/24 00:17:26;;;;;;;2.90;2.60;;;5.70;90.20;;;;;;5089032;27;20302;-62
2023/01/24 00:19:53;;;;;;;3.63;2.40;;;5.70;90.20;;;;;;5088341;27;20197;-61
2023/01/24 00:22:22;;;;;;;3.07;2.57;;;5.70;90.20;;;;;;5087222;28;20300;-61
2023/01/24 00:24:49;;;;;;;2.90;2.53;;;5.60;90.20;;;;;;5088619;27;20313;-62
2023/01/24 00:27:17;;;;;;;4.67;2.90;;;5.70;90.20;;;;;;5087217;27;20202;-61
2023/01/24 00:29:44;;;;;;;2.40;2.20;;;5.80;90.30;;;;;;5088913;28;20288;-61
2023/01/24 00:32:11;;;;;;;3.03;2.43;;;5.80;90.30;;;;;;5100751;27;20186;-61
2023/01/24 00:34:39;;;;;;;3.47;2.80;;;5.80;90.20;;;;;;5101052;27;20226;-61
2023/01/24 00:37:07;;;;;;;4.40;3.00;;;5.80;90.20;;;;;;5095257;27;20522;-61
2023/01/24 00:39:35;;;;;;;4.07;2.93;;;5.80;90.20;;;;;;5087721;28;20197;-62
2023/01/24 00:42:02;;;;;;;7.20;3.93;;;5.90;90.20;;;;;;5089583;27;20274;-62
2023/01/24 00:44:30;;;;;;;5.60;3.47;;;5.90;90.20;;;;;;5087965;27;20203;-61
2023/01/24 00:46:57;;;;;;;4.70;3.30;;;5.90;90.20;;;;;;5094588;27;20197;-62
2023/01/24 00:49:24;;;;;;;3.93;3.07;;;5.90;90.20;;;;;;5100170;27;20204;-62
2023/01/24 00:51:51;;;;;;;4.47;3.30;;;5.90;90.20;;;;;;5100120;27;20194;-62
2023/01/24 00:54:18;;;;;;;4.50;3.20;;;5.90;90.20;;;;;;5068478;28;20201;-62
2023/01/24 00:56:47;;;;;;;3.17;2.70;;;5.90;90.20;;;;;;5089315;28;20204;-62
2023/01/24 00:59:14;;;;;;;3.00;2.33;;;5.90;90.20;;;;;;5088024;27;20193;-61
2023/01/24 01:01:43;;;;;;;4.07;2.87;;;5.90;90.20;;;;;;5075477;28;20374;-61
2023/01/24 01:04:11;;;;;;;3.57;2.60;;;5.80;90.20;;;;;;5088977;27;20220;-61
2023/01/24 01:06:38;;;;;;;3.27;2.30;;;5.80;90.20;;;;;;5091473;28;20212;-61
2023/01/24 01:09:06;;;;;;;3.70;2.80;;;5.80;90.20;;;;;;5099362;27;20231;-62
2023/01/24 01:11:33;;;;;;;3.37;2.70;;;5.80;90.20;;;;;;5097165;27;20193;-62
2023/01/24 01:14:01;;;;;;;3.70;2.40;;;5.80;90.20;;;;;;5094729;27;20192;-62
2023/01/24 01:16:28;;;;;;;3.60;2.47;;;5.80;90.20;;;;;;5087196;27;20708;-62
2023/01/24 01:18:56;;;;;;;4.43;2.40;;;5.80;90.20;;;;;;5087216;28;20201;-62
2023/01/24 01:21:24;;;;;;;3.53;2.40;;;5.80;90.20;;;;;;5076240;28;20243;-62
2023/01/24 01:23:51;;;;;;;2.33;2.10;;;5.80;90.20;;;;;;5069279;28;20203;-62
2023/01/24 01:26:20;;;;;;;2.33;1.90;;;5.70;90.10;;;;;;5086552;28;20201;-62
2023/01/24 01:28:48;;;;;;;2.33;1.50;;;5.70;90.10;;;;;;5087030;28;20188;-62
2023/01/24 01:31:17;;;;;;;1.87;1.70;;;5.80;90.10;;;;;;5087810;27;20196;-62
2023/01/24 01:33:46;;;;;;;1.70;1.57;;;5.80;90.10;;;;;;5070694;28;20719;-62
2023/01/24 01:36:13;;;;;;;1.50;1.33;;;5.80;90.00;;;;;;5087052;28;20201;-62
2023/01/24 01:38:40;;;;;;;1.37;1.27;;;5.80;90.00;;;;;;5088119;28;20201;-62
2023/01/24 01:41:07;;;;;;;1.37;1.27;;;5.80;90.00;;;;;;5088204;28;20224;-62
2023/01/24 01:43:35;;;;;;;1.40;1.30;;;5.80;90.00;;;;;;5101661;27;20284;-62
2023/01/24 01:46:17;;;;;;;1.37;1.27;;;5.80;89.80;;;;;;5088055;28;20221;-62
2023/01/24 01:48:50;;;;;;;1.23;1.13;;;5.80;89.50;;;;;;5079439;28;20197;-62
2023/01/24 01:51:22;;;;;;;1.07;1.07;;;5.80;89.50;;;;;;5086611;28;20233;-62
2023/01/24 01:53:53;;;;;;;1.33;1.10;;;5.80;89.50;;;;;;5086705;28;20235;-62
2023/01/24 01:56:26;;;;;;;0.80;0.80;;;5.80;89.30;;;;;;5087685;28;20197;-62
2023/01/24 01:58:56;;;;;;;1.17;1.17;;;5.80;89.50;;;;;;5075527;28;20203;-62
2023/01/24 02:01:24;;;;;;;1.43;1.30;;;5.80;90.00;;;;;;5084764;28;20323;-62
2023/01/24 02:04:00;;;;;;;1.20;1.03;;;5.80;89.20;;;;;;5075618;28;20579;-62
2023/01/24 02:06:42;;;;;;;1.00;1.00;;;5.80;89.20;;;;;;5097430;27;20199;-62
2023/01/24 02:09:11;;;;;;;1.50;1.33;;;5.80;89.20;;;;;;5098761;27;20200;-62
2023/01/24 02:11:39;;;;;;;1.60;1.50;;;5.70;89.20;;;;;;5085975;28;20222;-62
2023/01/24 02:16:55;;;;;;;1.90;1.80;;;5.70;89.20;;;;;;5084571;28;20192;-62
2023/01/24 02:19:45;;;;;;;2.20;2.10;;;5.70;89.00;;;;;;5091021;28;20189;-62
2023/01/24 02:22:17;;;;;;;1.70;1.60;;;5.70;89.10;;;;;;5098184;27;20194;-62
2023/01/24 02:24:53;;;;;;;1.83;1.40;;;5.70;89.20;;;;;;5076435;28;20208;-62
2023/01/24 02:27:21;;;;;;;1.60;1.50;;;5.70;89.20;;;;;;5088139;28;20188;-62
2023/01/24 02:29:51;;;;;;;1.30;1.20;;;5.70;89.10;;;;;;5076143;28;20212;-63
2023/01/24 02:32:18;;;;;;;1.67;1.20;;;5.70;89.00;;;;;;5085320;28;20292;-62
2023/01/24 02:34:46;;;;;;;1.50;1.40;;;5.70;89.00;;;;;;5084751;28;21033;-63
2023/01/24 02:37:17;;;;;;;1.17;1.17;;;5.70;88.90;;;;;;5066808;28;20200;-61
2023/01/24 02:39:53;;;;;;;1.37;1.27;;;5.70;88.80;;;;;;5085955;28;20642;-61
2023/01/24 02:42:25;;;;;;;1.30;1.20;;;5.80;88.90;;;;;;5091289;28;20200;-61
2023/01/24 02:44:58;;;;;;;1.30;1.20;;;5.80;89.00;;;;;;5078016;28;20208;-61
2023/01/24 02:47:32;;;;;;;1.30;1.20;;;5.80;88.70;;;;;;5081197;28;20203;-62
2023/01/24 02:49:59;;;;;;;1.20;1.10;;;5.70;88.70;;;;;;5074494;28;20298;-61
2023/01/24 02:55:12;;;;;;;1.27;1.03;;;5.70;88.70;;;;;;5092819;28;20192;-61
2023/01/24 03:00:26;;;;;;;1.80;1.50;;;5.70;88.60;;;;;;5090912;28;20655;-62
2023/01/24 03:02:53;;;;;;;2.80;1.60;;;5.70;88.50;;;;;;5078461;28;20264;-62
2023/01/24 03:05:21;;;;;;;2.13;1.40;;;5.70;88.50;;;;;;5094691;28;20598;-62
2023/01/24 03:07:48;;;;;;;1.97;1.80;;;5.70;88.50;;;;;;5097039;28;20559;-60
2023/01/24 03:10:20;;;;;;;1.40;1.30;;;5.70;88.30;;;;;;5069847;28;22046;-61
2023/01/24 03:34:53;;;;;;;1.57;1.47;;;5.40;88.10;;;;;;5072958;28;20205;-61
2023/01/24 03:40:08;;;;;;;2.10;1.90;;;5.40;88.10;;;;;;5069869;28;20920;-61
2023/01/24 03:42:38;;;;;;;1.60;1.50;;;5.40;88.10;;;;;;5077545;28;20201;-61
2023/01/24 03:45:16;;;;;;;2.13;1.80;;;5.40;88.20;;;;;;5081945;28;20537;-61
2023/01/24 03:47:54;;;;;;;1.60;1.50;;;5.40;88.30;;;;;;5097221;27;20197;-61
2023/01/24 03:53:10;;;;;;;2.53;2.23;;;5.40;88.00;;;;;;5089883;28;20181;-62
2023/01/24 03:55:37;;;;;;;3.10;2.00;;;5.40;87.90;;;;;;5071561;27;20201;-61
2023/01/24 03:58:05;;;;;;;1.93;1.83;;;5.30;87.80;;;;;;5087336;28;21497;-62
2023/01/24 04:00:35;;;;;;;1.70;1.60;;;5.30;88.20;;;;;;5071733;28;20208;-62
2023/01/24 04:03:07;;;;;;;2.50;2.10;;;5.30;87.90;;;;;;5090112;28;20227;-63
2023/01/24 04:05:35;;;;;;;2.10;2.00;;;5.30;87.90;;;;;;5074034;27;20598;-63
2023/01/24 04:08:04;;;;;;;3.07;2.20;;;5.30;87.80;;;;;;5077526;28;20196;-63
2023/01/24 04:10:32;;;;;;;1.77;1.67;;;5.30;87.70;;;;;;5096550;27;20201;-62
2023/01/24 04:12:59;;;;;;;1.77;1.67;;;5.30;87.90;;;;;;5099747;27;20197;-61
2023/01/24 04:15:30;;;;;;;1.83;1.73;;;5.30;87.80;;;;;;5081072;28;20211;-61
2023/01/24 04:18:19;;;;;;;2.37;2.17;;;5.30;88.00;;;;;;5089852;28;20664;-61
2023/01/24 04:20:46;;;;;;;2.40;1.80;;;5.30;87.90;;;;;;5089209;28;20197;-62
2023/01/24 04:23:15;;;;;;;2.17;1.90;;;5.30;88.00;;;;;;5070796;27;20232;-62
2023/01/24 04:25:43;;;;;;;2.20;2.00;;;5.30;88.00;;;;;;5076468;28;20261;-62
2023/01/24 04:28:10;;;;;;;1.90;1.80;;;5.30;88.20;;;;;;5090090;27;20228;-62
2023/01/24 04:30:38;;;;;;;2.93;2.00;;;5.30;88.30;;;;;;5081295;28;20935;-60
2023/01/24 04:33:12;;;;;;;2.30;2.10;;;5.30;88.30;;;;;;5076813;28;20196;-61
2023/01/24 04:35:41;;;;;;;2.53;1.90;;;5.30;88.10;;;;;;5072168;28;20297;-62
2023/01/24 04:38:09;;;;;;;2.07;1.60;;;5.30;87.90;;;;;;5090729;27;20195;-62
2023/01/24 04:40:40;;;;;;;3.47;2.20;;;5.30;87.90;;;;;;5071429;28;20197;-62
2023/01/24 04:43:07;;;;;;;2.07;1.80;;;5.30;87.60;;;;;;5100023;27;20209;-62
2023/01/24 04:45:35;;;;;;;1.67;1.57;;;5.30;87.50;;;;;;5079543;28;20668;-62
2023/01/24 04:48:03;;;;;;;1.77;1.67;;;5.20;87.40;;;;;;5075807;28;20352;-62
2023/01/24 04:50:31;;;;;;;1.70;1.60;;;5.20;87.60;;;;;;5070833;28;20729;-62
2023/01/24 04:53:00;;;;;;;1.73;1.63;;;5.10;87.60;;;;;;5075394;28;20191;-61
2023/01/24 04:55:28;;;;;;;1.70;1.60;;;5.10;87.70;;;;;;5070377;28;20232;-62
2023/01/24 04:57:55;;;;;;;1.67;1.40;;;5.20;87.80;;;;;;5100261;27;20208;-62
2023/01/24 05:00:23;;;;;;;2.63;1.90;;;5.20;87.90;;;;;;5103554;27;20554;-62
2023/01/24 05:02:51;;;;;;;3.20;2.00;;;5.20;87.90;;;;;;5074870;28;20319;-61
2023/01/24 05:05:20;;;;;;;3.23;2.10;;;5.20;87.90;;;;;;5076711;28;20200;-61
2023/01/24 05:07:48;;;;;;;2.77;2.27;;;5.20;87.80;;;;;;5073669;28;20203;-62
2023/01/24 05:10:21;;;;;;;2.07;1.97;;;5.20;87.70;;;;;;5070054;28;20253;-61
2023/01/24 05:12:48;;;;;;;1.80;1.70;;;5.20;87.70;;;;;;5072629;27;20192;-61
2023/01/24 05:15:22;;;;;;;2.20;1.90;;;5.20;87.70;;;;;;5081092;28;20210;-61
2023/01/24 05:17:49;;;;;;;2.40;2.20;;;5.20;87.60;;;;;;5110363;27;20308;-61
2023/01/24 05:20:20;;;;;;;2.10;1.90;;;5.20;87.60;;;;;;5082786;28;20192;-61
2023/01/24 05:22:48;;;;;;;4.23;2.73;;;5.20;87.60;;;;;;5075936;28;20221;-61
2023/01/24 05:25:17;;;;;;;2.53;2.30;;;5.20;87.50;;;;;;5076818;28;20672;-61
2023/01/24 05:27:45;;;;;;;2.80;2.10;;;5.20;87.60;;;;;;5088451;27;20200;-61
2023/01/24 05:30:14;;;;;;;2.40;2.03;;;5.10;87.50;;;;;;5072087;28;20208;-61
2023/01/24 05:32:42;;;;;;;2.90;2.60;;;5.10;87.50;;;;;;5095889;27;20274;-61
2023/01/24 05:35:10;;;;;;;3.47;2.90;;;5.10;87.40;;;;;;5081812;28;20203;-61
2023/01/24 05:37:38;;;;;;;2.73;2.53;;;5.10;87.30;;;;;;5079102;28;20235;-61
2023/01/24 05:40:07;;;;;;;6.37;3.30;;;5.10;87.30;;;;;;5085726;27;20219;-61
2023/01/24 05:42:35;;;;;;;4.40;3.70;;;5.00;87.10;;;;;;5068084;28;20586;-61
2023/01/24 05:45:05;;;;;;;4.90;3.10;;;5.00;86.90;;;;;;5086692;28;20261;-61
2023/01/24 05:47:33;;;;;;;5.10;3.00;;;5.00;86.90;;;;;;5088277;28;20254;-62
2023/01/24 05:50:00;;;;;;;3.43;2.77;;;5.00;87.00;;;;;;5069468;28;20202;-61
2023/01/24 05:52:28;;;;;;;2.73;2.50;;;5.00;87.00;;;;;;5091664;28;20201;-62
2023/01/24 05:54:55;;;;;;;2.80;2.30;;;5.00;86.90;;;;;;5104105;27;20744;-62
2023/01/24 05:57:37;;;;;;;2.63;2.23;;;5.00;86.90;;;;;;5074935;28;20207;-62
2023/01/24 06:00:32;;;;;;;2.87;2.53;;;5.00;86.90;;;;;;5076049;28;20278;-62
2023/01/24 06:03:23;;;;;;;2.80;2.53;;;5.00;86.90;;;;;;5086681;27;22555;-63
2023/01/24 06:05:53;;;;;;;2.33;2.13;;;5.00;86.90;;;;;;5070099;28;20199;-62
2023/01/24 06:08:21;;;;;;;3.13;2.40;;;5.00;86.90;;;;;;5096192;27;20194;-63
2023/01/24 06:10:49;;;;;;;2.40;2.20;;;5.00;86.90;;;;;;5079983;27;20273;-62
2023/01/24 06:13:18;;;;;;;2.47;2.27;;;5.00;86.80;;;;;;5078554;28;20199;-62
2023/01/24 06:15:48;;;;;;;2.67;2.47;;;5.00;86.70;;;;;;5069267;28;20226;-61
2023/01/24 06:18:17;;;;;;;4.17;2.90;;;4.90;86.60;;;;;;5085990;28;20325;-61
2023/01/24 06:20:47;;;;;;;3.97;3.03;;;4.90;86.70;;;;;;5074811;28;20219;-62
2023/01/24 06:23:25;;;;;;;3.00;2.70;;;4.90;86.60;;;;;;5088676;27;20212;-62
2023/01/24 06:25:56;;;;;;;3.27;2.97;;;4.90;86.50;;;;;;5075765;28;20199;-62
2023/01/24 06:28:24;;;;;;;4.17;3.10;;;4.90;86.60;;;;;;5099113;28;20212;-62
2023/01/24 06:31:02;;;;;;;3.23;2.93;;;4.90;86.50;;;;;;5094487;27;20192;-62
2023/01/24 06:33:38;;;;;;;4.27;3.20;;;4.90;86.50;;;;;;5089493;28;20192;-62
2023/01/24 06:36:24;;;;;;;3.50;2.73;;;4.80;86.50;;;;;;5087270;28;20265;-63
2023/01/24 06:38:52;;;;;;;4.77;3.27;;;4.80;86.60;;;;;;5085759;27;20215;-62
2023/01/24 06:41:19;;;;;;;4.57;3.67;;;4.80;86.70;;;;;;5086711;28;20597;-62
2023/01/24 06:43:47;;;;;;;4.87;3.53;;;4.80;86.50;;;;;;5090355;28;20211;-63
2023/01/24 06:46:16;;;;;;;3.43;3.03;;;4.80;86.50;;;;;;5095352;28;20193;-62
2023/01/24 06:48:44;;;;;;;3.70;2.90;;;4.80;86.60;;;;;;5095404;27;20647;-63
2023/01/24 06:51:14;;;;;;;4.87;2.87;;;4.90;86.60;;;;;;5085103;28;20192;-61
2023/01/24 06:53:41;;;;;;;3.37;2.93;;;4.80;86.30;;;;;;5085227;28;20207;-62
2023/01/24 06:56:09;;;;;;;4.83;3.20;;;4.80;86.40;;;;;;5087040;28;20609;-61
2023/01/24 06:58:36;;;;;;;5.20;4.17;;;4.80;86.30;;;;;;5089189;28;20192;-62
2023/01/24 07:01:04;;;;;;;4.73;3.93;;;4.70;86.40;;;;;;5085853;28;20192;-60
2023/01/24 07:03:32;;;;;;;7.73;4.73;;;4.70;86.60;;;;;;5073951;28;20514;-62
2023/01/24 07:06:00;;;;;;;7.30;4.43;;;5.50;87.20;;;;;;5081910;28;20195;-61
2023/01/24 07:08:27;;;;;;;9.13;5.20;;;4.70;86.40;;;;;;5079402;28;20207;-62
2023/01/24 07:10:54;;;;;;;7.57;4.73;;;4.70;86.40;;;;;;5096046;28;20196;-61
2023/01/24 07:13:21;;;;;;;5.43;4.00;;;4.70;86.40;;;;;;5091580;27;20241;-61
2023/01/24 07:15:48;;;;;;;7.03;5.30;;;4.70;86.50;;;;;;5086539;28;20199;-61
2023/01/24 07:18:18;;;;;;;6.97;4.80;;;4.70;86.60;;;;;;5089759;27;20195;-61
2023/01/24 07:20:47;;;;;;;6.80;4.20;;;4.70;86.60;;;;;;5100056;27;20196;-62
2023/01/24 07:23:23;;;;;;;7.27;4.50;;;4.60;86.60;;;;;;5100798;27;20219;-62
2023/01/24 07:25:50;;;;;;;6.07;4.27;;;4.60;86.70;;;;;;5088028;27;20893;-62
2023/01/24 07:28:18;;;;;;;5.77;4.40;;;4.60;86.80;;;;;;5090956;28;20198;-62
2023/01/24 07:30:45;;;;;;;6.20;4.20;;;4.60;86.60;;;;;;5090874;27;20200;-62
2023/01/24 07:33:14;;;;;;;7.43;4.63;;;4.60;86.60;;;;;;5086733;27;20192;-62
2023/01/24 07:35:41;;;;;;;6.73;4.93;;;4.70;86.60;;;;;;5088329;28;21374;-62
2023/01/24 07:38:11;;;;;;;7.90;5.10;;;4.70;86.40;;;;;;5089069;27;21098;-61
2023/01/24 07:40:38;;;;;;;7.17;4.80;;;4.70;86.30;;;;;;5088253;28;20188;-62
2023/01/24 07:43:06;;;;;;;5.80;4.13;;;4.60;86.20;;;;;;5095498;27;20274;-62
2023/01/24 07:45:37;;;;;;;6.53;4.40;;;4.70;86.20;;;;;;5100618;27;20776;-62
2023/01/24 07:48:07;;;;;;;4.83;3.50;;;4.70;86.20;;;;;;5094573;27;20593;-61
2023/01/24 07:50:35;;;;;;;6.53;4.50;;;4.70;86.10;;;;;;5090362;28;20211;-62
2023/01/24 07:53:02;;;;;;;5.70;3.90;;;4.60;86.10;;;;;;5096584;28;20180;-61
2023/01/24 07:55:31;;;;;;;5.07;3.93;;;4.70;86.30;;;;;;5106867;27;20187;-60
2023/01/24 07:58:02;;;;;;;4.20;3.40;;;4.70;86.30;;;;;;5091612;28;20192;-61
2023/01/24 08:00:29;;;;;;;3.80;3.40;;;4.70;86.40;;;;;;5074189;28;20196;-61
2023/01/24 08:02:56;;;;;;;5.93;3.83;;;4.70;86.30;;;;;;5090552;27;20656;-61
2023/01/24 08:05:24;;;;;;;5.67;4.13;;;4.70;86.10;;;;;;5100048;27;20556;-62
2023/01/24 08:07:51;;;;;;;5.50;3.73;;;4.60;86.00;;;;;;5097534;27;20196;-61
2023/01/24 08:10:21;;;;;;;9.27;4.80;;;4.60;86.00;;;;;;5099651;27;20210;-62
2023/01/24 08:12:51;;;;;;;5.13;4.07;;;4.60;85.90;;;;;;5088086;28;20198;-61
2023/01/24 08:15:43;;;;;;;6.50;4.43;;;4.60;86.00;;;;;;5088328;27;20798;-60
2023/01/24 08:18:11;;;;;;;7.40;4.80;;;4.50;85.90;;;;;;5100640;27;20215;-62
2023/01/24 08:20:38;;;;;;;7.50;4.27;;;4.50;85.80;;;;;;5100845;27;20215;-60
2023/01/24 08:23:05;;;;;;;7.83;4.73;;;4.50;86.00;;;;;;5093454;27;20200;-61
2023/01/24 08:25:33;;;;;;;5.30;4.00;;;4.50;86.10;;;;;;5086143;27;20388;-62
2023/01/24 08:28:02;;;;;;;4.83;3.87;;;4.60;86.30;;;;;;5089813;27;20210;-61
2023/01/24 08:30:29;;;;;;;5.53;3.80;;;4.60;86.20;;;;;;5098889;27;20261;-62
2023/01/24 08:33:01;;;;;;;6.53;4.23;;;4.60;86.20;;;;;;5101622;27;20199;-63
2023/01/24 08:35:28;;;;;;;7.87;5.03;;;4.70;86.10;;;;;;5093330;28;20686;-62
2023/01/24 08:37:55;;;;;;;7.47;4.80;;;4.60;86.00;;;;;;5090836;27;20203;-61
2023/01/24 08:40:22;;;;;;;6.47;4.47;;;4.70;86.10;;;;;;5091298;27;20200;-62
2023/01/24 08:42:49;;;;;;;6.13;4.43;;;4.70;86.10;;;;;;5099416;27;20241;-61
2023/01/24 08:45:18;;;;;;;5.07;4.03;;;4.70;86.00;;;;;;5095193;27;20260;-61
2023/01/24 08:47:45;;;;;;;6.73;4.43;;;4.70;86.10;;;;;;5087665;28;20203;-62
2023/01/24 08:50:16;;;;;;;5.03;3.93;;;4.70;86.00;;;;;;5084525;28;20204;-62
2023/01/24 08:52:43;;;;;;;6.97;4.30;;;4.80;86.00;;;;;;5085115;27;20193;-62
2023/01/24 08:55:10;;;;;;;9.00;4.80;;;4.80;85.90;;;;;;5087757;27;20268;-62
2023/01/24 08:57:37;;;;;;;5.53;4.03;;;4.80;85.70;;;;;;5100810;27;20773;-63
2023/01/24 09:00:06;;;;;;;6.67;4.43;;;4.80;85.80;;;;;;5077857;27;20192;-62
2023/01/24 09:02:37;;;;;;;6.10;4.37;;;4.80;85.70;;;;;;5085862;28;20901;-62
2023/01/24 09:05:05;;;;;;;6.53;4.40;;;4.80;85.70;;;;;;5085232;27;20700;-62
2023/01/24 09:07:34;;;;;;;4.67;3.43;;;4.80;85.80;;;;;;5087405;27;20197;-62
2023/01/24 09:10:01;;;;;;;6.67;4.40;;;4.80;85.90;;;;;;5087114;28;20271;-61
2023/01/24 09:12:28;;;;;;;4.63;3.93;;;4.90;85.90;;;;;;5095911;28;20203;-61
2023/01/24 09:14:55;;;;;;;8.13;5.30;;;4.90;85.90;;;;;;5101996;27;20192;-61
2023/01/24 09:17:23;;;;;;;9.07;4.97;;;4.90;85.70;;;;;;5094897;27;20214;-61
2023/01/24 09:19:51;;;;;;;7.47;4.57;;;4.90;85.70;;;;;;5086663;28;20206;-61
2023/01/24 09:22:18;;;;;;;4.33;3.70;;;4.90;85.80;;;;;;5084694;27;20204;-62
2023/01/24 09:24:45;;;;;;;4.83;3.80;;;4.80;85.80;;;;;;5065572;28;20212;-61
2023/01/24 09:27:13;;;;;;;4.03;3.50;;;4.90;86.00;;;;;;5081537;28;20328;-62
2023/01/24 09:29:40;;;;;;;4.63;3.47;;;4.90;85.90;;;;;;5094237;27;20195;-62
2023/01/24 09:32:07;;;;;;;3.60;3.10;;;4.40;85.40;;;;;;5094113;28;20208;-61
2023/01/24 09:34:34;;;;;;;4.43;3.50;;;5.00;85.90;;;;;;5073797;28;20200;-61
2023/01/24 09:37:03;;;;;;;5.07;3.70;;;5.00;85.80;;;;;;5081989;28;20674;-61
2023/01/24 09:39:30;;;;;;;5.27;3.23;;;5.00;85.60;;;;;;5074138;28;20728;-62
2023/01/24 09:42:02;;;;;;;3.60;3.07;;;3.60;84.20;;;;;;5084686;27;20196;-62
2023/01/24 09:44:44;;;;;;;5.57;3.00;;;5.10;85.70;;;;;;5088680;27;20204;-62
2023/01/24 09:47:19;;;;;;;3.77;3.30;;;5.10;85.70;;;;;;5098026;27;20201;-62
2023/01/24 09:49:50;;;;;;;3.67;2.70;;;5.10;85.70;;;;;;5083277;27;20206;-61
2023/01/24 09:52:27;;;;;;;3.20;2.90;;;5.10;86.30;;;;;;5084438;28;20666;-62
2023/01/24 09:55:01;;;;;;;3.90;2.70;;;5.10;85.50;;;;;;5085612;28;20188;-61
2023/01/24 09:57:34;;;;;;;2.90;2.47;;;5.10;85.30;;;;;;5084788;28;20348;-61
2023/01/24 10:00:11;;;;;;;4.90;3.60;;;5.10;85.40;;;;;;5084852;28;20199;-62
2023/01/24 10:02:42;;;;;;;5.60;4.10;;;5.10;85.30;;;;;;5090737;28;20254;-62
2023/01/24 10:05:14;;;;;;;4.77;3.73;;;5.10;85.30;;;;;;5100262;27;20574;-62
2023/01/24 10:08:09;;;;;;;9.73;4.83;;;5.00;86.00;;;;;;5094785;27;20209;-62
2023/01/24 10:10:59;;;;;;;7.07;4.43;;;5.00;85.40;;;;;;5085910;28;20257;-62
2023/01/24 10:13:59;;;;;;;8.13;4.00;;;4.90;85.30;;;;;;5099255;27;20829;-62
2023/01/24 10:16:48;;;;;;;5.70;4.07;;;5.00;85.50;;;;;;5067612;27;20207;-62
2023/01/24 10:19:28;;;;;;;9.23;5.53;;;5.00;85.40;;;;;;5085007;28;20638;-62
2023/01/24 10:22:22;;;;;;;7.00;4.30;;;4.90;85.40;;;;;;5080703;27;20209;-62
2023/01/24 10:24:56;;;;;;;8.30;4.10;;;4.10;84.60;;;;;;5063987;28;20409;-62
2023/01/24 10:27:28;;;;;;;10.17;5.03;;;4.90;85.40;;;;;;5084012;28;20191;-62
2023/01/24 10:30:00;;;;;;;6.87;4.40;;;4.90;85.30;;;;;;5066152;28;20538;-62
2023/01/24 10:32:33;;;;;;;4.97;4.27;;;4.90;85.30;;;;;;5098569;27;20184;-61
2023/01/24 10:35:18;;;;;;;4.93;3.97;;;4.90;85.60;;;;;;5098574;28;20188;-62
2023/01/24 10:38:01;;;;;;;5.60;3.87;;;4.90;85.40;;;;;;5088344;28;20194;-61
2023/01/24 10:40:30;;;;;;;6.17;4.47;;;4.90;85.30;;;;;;5097067;28;20206;-63
2023/01/24 10:43:03;;;;;;;5.83;4.00;;;4.80;85.10;;;;;;5100306;27;20192;-62
2023/01/24 10:45:52;;;;;;;4.80;3.60;;;6.10;86.20;;;;;;5084422;28;20261;-63
2023/01/24 10:48:31;;;;;;;7.33;4.50;;;4.80;85.10;;;;;;5083674;28;20231;-62
2023/01/24 10:51:12;;;;;;;4.20;3.80;;;4.80;85.00;;;;;;5066014;28;20219;-62
2023/01/24 10:53:39;;;;;;;5.00;3.70;;;4.80;85.30;;;;;;5088050;27;20969;-61
2023/01/24 10:59:20;;;;;;;6.33;3.50;;;4.80;86.00;;;;;;5070960;28;20620;-62
2023/01/24 11:02:23;;;;;;;4.20;3.10;;;4.80;85.50;;;;;;5083515;28;20191;-63
2023/01/24 11:05:01;;;;;;;7.33;4.40;;;4.80;85.00;;;;;;5062706;28;20232;-60
2023/01/24 11:07:32;;;;;;;7.70;4.27;;;4.80;84.90;;;;;;5059766;28;20201;-61
2023/01/24 11:10:01;;;;;;;5.63;4.33;;;5.10;85.20;;;;;;5064412;28;20278;-61
2023/01/24 11:12:29;;;;;;;5.37;4.10;;;4.70;85.00;;;;;;5062903;28;20272;-61
2023/01/24 11:14:57;;;;;;;10.57;5.80;;;4.70;84.80;;;;;;5064537;28;20193;-61
2023/01/24 11:17:33;;;;;;;9.03;5.77;;;4.70;84.80;;;;;;5068408;28;20203;-61
2023/01/24 11:20:05;;;;;;;8.73;5.50;;;4.60;84.80;;;;;;5075487;28;20349;-60
2023/01/24 11:22:34;;;;;;;8.97;5.83;;;4.60;84.80;;;;;;5073740;28;20204;-60
2023/01/24 11:25:05;;;;;;;8.43;5.47;;;4.60;84.90;;;;;;5061900;28;20567;-62
2023/01/24 11:27:46;;;;;;;8.03;5.40;;;4.60;85.00;;;;;;5061695;28;20197;-61
2023/01/24 11:30:18;;;;;;;6.27;4.80;;;4.50;84.90;;;;;;5063185;28;20207;-62
2023/01/24 11:32:56;;;;;;;6.87;4.53;;;4.60;85.00;;;;;;5060631;28;20185;-61
2023/01/24 11:35:25;;;;;;;6.00;4.20;;;4.60;85.10;;;;;;5065413;28;20184;-62
2023/01/24 11:38:16;;;;;;;7.33;5.30;;;4.60;85.00;;;;;;5072727;28;20207;-62
2023/01/24 11:40:48;;;;;;;8.03;4.90;;;4.60;84.80;;;;;;5086145;28;20202;-62
2023/01/24 11:43:36;;;;;;;11.37;5.70;;;4.70;84.80;;;;;;5073331;28;20185;-62
2023/01/24 11:46:17;;;;;;;9.93;5.03;;;4.70;84.50;;;;;;5062197;28;20208;-61
2023/01/24 11:48:53;;;;;;;9.00;4.53;;;4.70;84.50;;;;;;5074286;28;20200;-61
2023/01/24 11:51:34;;;;;;;8.90;5.07;;;4.70;85.50;;;;;;5070587;28;20289;-61
2023/01/24 11:54:15;;;;;;;6.63;4.70;;;4.80;85.00;;;;;;5063651;28;20189;-61
2023/01/24 11:56:50;;;;;;;6.97;4.73;;;4.80;84.90;;;;;;5066629;28;20196;-60
2023/01/24 11:59:35;;;;;;;7.93;5.00;;;4.80;84.70;;;;;;5075816;28;20195;-60
2023/01/24 12:02:21;;;;;;;7.10;4.37;;;4.70;84.60;;;;;;5078997;28;20184;-61
2023/01/24 12:05:06;;;;;;;7.97;4.90;;;4.70;84.40;;;;;;5085297;28;20975;-61
2023/01/24 12:07:49;;;;;;;6.07;4.70;;;4.60;84.40;;;;;;5099172;27;20184;-62
2023/01/24 12:10:25;;;;;;;7.90;5.20;;;4.60;84.50;;;;;;5102622;27;20195;-61
2023/01/24 12:13:01;;;;;;;7.47;4.13;;;4.60;84.50;;;;;;5088134;27;22598;-61
2023/01/24 12:15:39;;;;;;;7.53;5.30;;;4.60;84.60;;;;;;5089721;27;20556;-62
2023/01/24 12:18:40;;;;;;;7.77;5.23;;;4.50;84.60;;;;;;5096618;27;20192;-61
2023/01/24 12:21:09;;;;;;;8.00;4.60;;;4.60;84.60;;;;;;5053760;27;20211;-61
2023/01/24 12:23:48;;;;;;;5.60;4.20;;;4.70;84.70;;;;;;5072782;28;20211;-62
2023/01/24 12:26:19;;;;;;;7.77;4.40;;;4.70;84.70;;;;;;5072720;28;20218;-61
2023/01/24 12:28:54;;;;;;;9.30;4.50;;;4.70;84.80;;;;;;5098580;27;20195;-61
2023/01/24 12:31:44;;;;;;;6.37;4.53;;;4.70;84.80;;;;;;5097156;28;20191;-61
2023/01/24 12:34:25;;;;;;;5.53;4.23;;;4.70;84.90;;;;;;5090361;27;20192;-60
2023/01/24 12:36:59;;;;;;;5.17;4.20;;;4.80;85.00;;;;;;5081098;28;20210;-61
2023/01/24 12:39:35;;;;;;;4.13;3.73;;;4.80;85.10;;;;;;5087143;28;20261;-61
2023/01/24 12:42:09;;;;;;;6.33;4.60;;;4.80;85.10;;;;;;5086053;28;20187;-61
2023/01/24 12:44:42;;;;;;;11.20;5.00;;;4.80;85.10;;;;;;5097305;27;20199;-61
2023/01/24 12:47:35;;;;;;;8.33;5.17;;;4.80;85.20;;;;;;5099637;27;20278;-61
2023/01/24 12:50:14;;;;;;;8.57;5.00;;;4.80;85.40;;;;;;5091019;28;20207;-61
2023/01/24 12:52:47;;;;;;;7.30;4.60;;;4.80;85.60;;;;;;5087160;27;20188;-61
2023/01/24 12:55:18;;;;;;;5.97;4.73;;;4.80;85.60;;;;;;5098688;27;20547;-62
2023/01/24 12:57:49;;;;;;;5.60;3.93;;;4.90;85.70;;;;;;5099899;27;20184;-61
2023/01/24 13:00:18;;;;;;;7.33;5.00;;;4.90;85.70;;;;;;5095146;27;20184;-61
2023/01/24 13:03:19;;;;;;;6.53;5.20;;;4.90;85.80;;;;;;5100489;27;20576;-62
2023/01/24 13:05:53;;;;;;;6.70;4.47;;;4.90;85.80;;;;;;5095180;28;20208;-60
2023/01/24 13:08:34;;;;;;;7.83;5.10;;;4.90;85.80;;;;;;5088291;28;20192;-60
2023/01/24 13:11:16;;;;;;;8.10;5.23;;;4.90;86.00;;;;;;5097085;27;20635;-61
2023/01/24 13:13:48;;;;;;;6.43;4.50;;;4.90;85.90;;;;;;5102049;27;20659;-61
2023/01/24 13:16:43;;;;;;;8.30;5.53;;;4.90;85.90;;;;;;5093383;28;20783;-62
2023/01/24 13:19:23;;;;;;;12.20;5.53;;;4.90;85.90;;;;;;5100360;27;20221;-62
2023/01/24 13:21:56;;;;;;;9.20;5.00;;;4.90;85.80;;;;;;5096492;27;20223;-62
2023/01/24 13:24:41;;;;;;;8.50;5.80;;;4.90;85.90;;;;;;5087707;28;20197;-61
2023/01/24 13:27:21;;;;;;;9.20;5.73;;;4.90;86.00;;;;;;5097972;28;20192;-62
2023/01/24 13:30:06;;;;;;;7.63;4.70;;;4.80;86.10;;;;;;5097838;28;20195;-61
2023/01/24 13:32:38;;;;;;;5.33;4.23;;;4.80;86.20;;;;;;5075410;28;20197;-62
2023/01/24 13:35:16;;;;;;;5.07;4.50;;;4.80;86.30;;;;;;5101296;27;20188;-62
2023/01/24 13:37:51;;;;;;;8.17;5.13;;;4.80;86.50;;;;;;5099590;27;20192;-61
2023/01/24 13:40:29;;;;;;;6.23;4.67;;;4.80;86.50;;;;;;5071286;28;20248;-62
2023/01/24 13:42:57;;;;;;;6.17;4.23;;;4.90;86.90;;;;;;5089404;27;20299;-61
2023/01/24 13:45:52;;;;;;;5.57;4.30;;;3.40;85.20;;;;;;5092951;27;20240;-62
2023/01/24 13:48:48;;;;;;;6.20;4.50;;;4.90;86.70;;;;;;5050733;28;20252;-62
2023/01/24 13:51:50;;;;;;;8.13;4.20;;;4.90;86.80;;;;;;5086698;28;20278;-62
2023/01/24 13:54:36;;;;;;;5.17;3.97;;;4.90;86.80;;;;;;5096227;28;20183;-62
2023/01/24 13:57:21;;;;;;;9.83;4.67;;;4.90;86.90;;;;;;5095111;27;20210;-62
2023/01/24 14:00:18;;;;;;;6.77;4.60;;;4.90;87.10;;;;;;5091479;27;20256;-61
2023/01/24 14:03:16;;;;;;;8.47;4.83;;;5.00;87.30;;;;;;5090635;27;20195;-62